Time;durP1;ratioP1;P1;durP2;ratioP2;P2;SDS_P1;SDS_P2;PMS_P1;PMS_P2;Temp;Humidity;BMP_temperature;BMP_pressure;BME280_temperature;BME280_humidity;BME280_pressure;Samples;Min_cycle;Max_cycle;Signal;HPM_P1;HPM_P2
2023/09/20 00:01:51;;;;;;;14.25;9.48;;;;;;;;;;5053517;28;20192;-45
2023/09/20 00:04:19;;;;;;;13.40;8.25;;;;;;;;;;5053429;28;20232;-45
2023/09/20 00:06:47;;;;;;;12.05;8.43;;;;;;;;;;5052959;28;20195;-45
2023/09/20 00:09:15;;;;;;;18.30;9.98;;;;;;;;;;5052925;28;20257;-45
2023/09/20 00:11:44;;;;;;;11.95;7.93;;;;;;;;;;5052831;28;20657;-45
2023/09/20 00:14:11;;;;;;;15.45;8.90;;;;;;;;;;5053216;28;20211;-44
2023/09/20 00:16:39;;;;;;;17.17;8.60;;;;;;;;;;5053061;28;20660;-45
2023/09/20 00:19:06;;;;;;;16.42;9.07;;;;;;;;;;5053115;28;20204;-45
2023/09/20 00:21:34;;;;;;;13.05;8.00;;;;;;;;;;5052799;28;20200;-45
2023/09/20 00:24:04;;;;;;;11.25;7.90;;;;;;;;;;5052785;28;20317;-44
2023/09/20 00:26:33;;;;;;;12.88;8.73;;;;;;;;;;5052763;28;20196;-47
2023/09/20 00:29:07;;;;;;;16.25;8.02;;;;;;;;;;5052945;28;20200;-45
2023/09/20 00:31:35;;;;;;;19.63;8.70;;;;;;;;;;5052748;28;20208;-45
2023/09/20 00:34:03;;;;;;;13.90;7.95;;;;;;;;;;5052868;28;20219;-45
2023/09/20 00:36:31;;;;;;;14.23;8.40;;;;;;;;;;5035254;28;20208;-45
2023/09/20 00:39:00;;;;;;;18.70;8.02;;;;;;;;;;5052565;28;20605;-45
2023/09/20 00:41:28;;;;;;;12.00;7.70;;;;;;;;;;5052753;28;20538;-46
2023/09/20 00:43:58;;;;;;;13.98;7.57;;;;;;;;;;5035057;28;20585;-45
2023/09/20 00:46:25;;;;;;;12.27;7.10;;;;;;;;;;5052832;28;20274;-46
2023/09/20 00:48:54;;;;;;;13.07;7.13;;;;;;;;;;5052831;28;20214;-45
2023/09/20 00:51:22;;;;;;;14.68;7.47;;;;;;;;;;5053515;28;20204;-45
2023/09/20 00:53:55;;;;;;;17.75;7.63;;;;;;;;;;5056427;28;20239;-44
2023/09/20 00:56:23;;;;;;;13.38;6.93;;;;;;;;;;5056211;28;20659;-46
2023/09/20 00:58:52;;;;;;;13.13;7.28;;;;;;;;;;5056454;28;20222;-44
2023/09/20 01:01:20;;;;;;;13.05;7.35;;;;;;;;;;5038436;28;20578;-45
2023/09/20 01:03:47;;;;;;;14.07;7.07;;;;;;;;;;5021867;28;20688;-45
2023/09/20 01:06:17;;;;;;;14.82;7.60;;;;;;;;;;5056223;28;20207;-45
2023/09/20 01:08:46;;;;;;;10.73;7.40;;;;;;;;;;5056281;28;20199;-44
2023/09/20 01:11:15;;;;;;;14.80;6.90;;;;;;;;;;5056121;28;20199;-44
2023/09/20 01:13:43;;;;;;;14.57;6.82;;;;;;;;;;5056033;28;20196;-44
2023/09/20 01:16:14;;;;;;;13.20;7.05;;;;;;;;;;5055685;28;20671;-45
2023/09/20 01:18:44;;;;;;;12.48;7.43;;;;;;;;;;5056075;28;20200;-47
2023/09/20 01:21:12;;;;;;;9.35;7.45;;;;;;;;;;5055988;28;20212;-45
2023/09/20 01:23:45;;;;;;;11.70;7.28;;;;;;;;;;5056020;28;20228;-45
2023/09/20 01:26:12;;;;;;;12.00;7.78;;;;;;;;;;5037749;28;20208;-45
2023/09/20 01:28:40;;;;;;;14.50;7.18;;;;;;;;;;5055696;28;20223;-45
2023/09/20 01:31:08;;;;;;;12.07;6.88;;;;;;;;;;5037824;28;20563;-45
2023/09/20 01:33:35;;;;;;;11.65;7.35;;;;;;;;;;5055930;28;20212;-45
2023/09/20 01:36:06;;;;;;;11.38;7.20;;;;;;;;;;5055423;28;20696;-44
2023/09/20 01:38:34;;;;;;;15.55;7.28;;;;;;;;;;5055916;28;20223;-45
2023/09/20 01:41:03;;;;;;;12.02;6.60;;;;;;;;;;5055686;28;20274;-44
2023/09/20 01:43:31;;;;;;;10.18;7.28;;;;;;;;;;5055600;28;20247;-44
2023/09/20 01:45:58;;;;;;;13.75;7.18;;;;;;;;;;5055613;28;20200;-45
2023/09/20 01:48:26;;;;;;;8.85;6.65;;;;;;;;;;5037679;28;20262;-46
2023/09/20 01:50:54;;;;;;;12.43;7.10;;;;;;;;;;5055315;28;20211;-46
2023/09/20 01:53:24;;;;;;;11.85;7.00;;;;;;;;;;5055205;28;20231;-44
2023/09/20 01:55:52;;;;;;;10.82;6.55;;;;;;;;;;5055355;28;20196;-44
2023/09/20 01:58:19;;;;;;;20.02;6.53;;;;;;;;;;5037558;28;20619;-46
2023/09/20 02:00:50;;;;;;;14.43;6.68;;;;;;;;;;5021247;28;20200;-44
2023/09/20 02:03:18;;;;;;;12.30;6.40;;;;;;;;;;5036815;28;20705;-46
2023/09/20 02:05:48;;;;;;;11.55;7.05;;;;;;;;;;5037370;28;20297;-47
2023/09/20 02:08:17;;;;;;;17.55;7.63;;;;;;;;;;5037217;28;20206;-44
2023/09/20 02:10:45;;;;;;;9.68;6.72;;;;;;;;;;5037074;28;20250;-44
2023/09/20 02:13:15;;;;;;;10.30;6.60;;;;;;;;;;5037042;28;20208;-44
2023/09/20 02:15:44;;;;;;;12.68;6.90;;;;;;;;;;5036132;28;20215;-46
2023/09/20 02:18:12;;;;;;;12.82;6.63;;;;;;;;;;5053792;28;20200;-45
2023/09/20 02:20:39;;;;;;;11.85;6.88;;;;;;;;;;5035385;28;20207;-45
2023/09/20 02:23:12;;;;;;;16.63;6.80;;;;;;;;;;5035739;28;20216;-45
2023/09/20 02:25:43;;;;;;;8.88;6.35;;;;;;;;;;5035032;28;20241;-45
2023/09/20 02:28:10;;;;;;;10.63;6.82;;;;;;;;;;5052797;28;20199;-45
2023/09/20 02:30:39;;;;;;;10.02;6.05;;;;;;;;;;5052753;28;20208;-45
2023/09/20 02:33:08;;;;;;;11.07;6.93;;;;;;;;;;5052713;28;20212;-46
2023/09/20 02:35:36;;;;;;;10.82;5.93;;;;;;;;;;5052454;28;20204;-45
2023/09/20 02:38:05;;;;;;;12.10;6.70;;;;;;;;;;5053649;28;20212;-44
2023/09/20 02:40:35;;;;;;;9.98;6.03;;;;;;;;;;5054250;28;20203;-44
2023/09/20 02:43:08;;;;;;;11.52;6.90;;;;;;;;;;5036549;28;20231;-45
2023/09/20 02:45:39;;;;;;;16.70;6.00;;;;;;;;;;5054165;28;20204;-45
2023/09/20 02:48:07;;;;;;;9.13;5.95;;;;;;;;;;5036876;28;20200;-45
2023/09/20 02:50:36;;;;;;;10.18;5.82;;;;;;;;;;5036685;28;20261;-45
2023/09/20 02:53:06;;;;;;;11.43;6.65;;;;;;;;;;5036261;28;20676;-45
2023/09/20 02:55:34;;;;;;;17.17;6.07;;;;;;;;;;5019900;28;20200;-45
2023/09/20 02:58:01;;;;;;;9.85;5.57;;;;;;;;;;5036238;28;20200;-46
2023/09/20 03:00:31;;;;;;;12.07;6.20;;;;;;;;;;5036178;28;20204;-44
2023/09/20 03:03:01;;;;;;;7.82;5.63;;;;;;;;;;5054314;28;20254;-45
2023/09/20 03:05:35;;;;;;;10.40;6.20;;;;;;;;;;5036269;28;20203;-45
2023/09/20 03:08:11;;;;;;;12.07;6.45;;;;;;;;;;5036178;28;20575;-44
2023/09/20 03:10:43;;;;;;;11.25;5.47;;;;;;;;;;5036392;28;20260;-45
2023/09/20 03:13:16;;;;;;;10.27;6.13;;;;;;;;;;5053489;28;20250;-44
2023/09/20 03:15:48;;;;;;;11.10;6.35;;;;;;;;;;5036038;28;20200;-45
2023/09/20 03:18:18;;;;;;;11.43;6.50;;;;;;;;;;5036001;28;20704;-45
2023/09/20 03:20:53;;;;;;;10.90;5.70;;;;;;;;;;5036267;28;20204;-47
2023/09/20 03:23:22;;;;;;;9.30;6.13;;;;;;;;;;5053060;28;20585;-46
2023/09/20 03:25:51;;;;;;;14.75;6.15;;;;;;;;;;5048032;28;20204;-45
2023/09/20 03:28:24;;;;;;;9.55;5.95;;;;;;;;;;5000864;28;20208;-46
2023/09/20 03:30:55;;;;;;;15.35;6.20;;;;;;;;;;5050782;28;20204;-45
2023/09/20 03:33:25;;;;;;;11.45;6.05;;;;;;;;;;5034346;28;20211;-45
2023/09/20 03:35:52;;;;;;;9.52;5.75;;;;;;;;;;5034515;28;20576;-45
2023/09/20 03:38:20;;;;;;;7.10;5.70;;;;;;;;;;5034981;28;20208;-49
2023/09/20 03:40:48;;;;;;;9.85;6.15;;;;;;;;;;5033935;28;20258;-47
2023/09/20 03:43:15;;;;;;;7.97;5.20;;;;;;;;;;5033668;28;20315;-46
2023/09/20 03:45:47;;;;;;;9.73;5.68;;;;;;;;;;5033733;28;20188;-49
2023/09/20 03:48:17;;;;;;;8.70;5.40;;;;;;;;;;5028999;28;20192;-46
2023/09/20 03:50:45;;;;;;;11.50;5.47;;;;;;;;;;5033600;28;20200;-45
2023/09/20 03:53:13;;;;;;;8.05;5.35;;;;;;;;;;5033384;28;20204;-45
2023/09/20 03:55:46;;;;;;;9.45;5.72;;;;;;;;;;5034658;28;20207;-43
2023/09/20 03:58:13;;;;;;;8.30;4.82;;;;;;;;;;5030094;28;20211;-48
2023/09/20 04:00:42;;;;;;;11.20;5.47;;;;;;;;;;5051845;28;20219;-47
2023/09/20 04:03:11;;;;;;;8.82;5.88;;;;;;;;;;5040109;28;20254;-45
2023/09/20 04:05:39;;;;;;;8.93;5.63;;;;;;;;;;5034554;28;20291;-47
2023/09/20 04:08:16;;;;;;;9.88;5.45;;;;;;;;;;5031489;28;20228;-45
2023/09/20 04:10:45;;;;;;;8.60;5.50;;;;;;;;;;5023802;28;20273;-46
2023/09/20 04:13:14;;;;;;;8.38;5.82;;;;;;;;;;5034542;28;20255;-45
2023/09/20 04:15:42;;;;;;;8.77;5.90;;;;;;;;;;5034120;28;20230;-45
2023/09/20 04:18:12;;;;;;;6.63;5.22;;;;;;;;;;5021775;28;20588;-45
2023/09/20 04:20:45;;;;;;;7.93;5.57;;;;;;;;;;5034485;28;20240;-45
2023/09/20 04:23:14;;;;;;;6.95;5.60;;;;;;;;;;5027480;28;20278;-45
2023/09/20 04:25:42;;;;;;;8.43;5.20;;;;;;;;;;5020096;28;20225;-45
2023/09/20 04:28:10;;;;;;;8.48;5.75;;;;;;;;;;5036565;28;20224;-47
2023/09/20 04:30:38;;;;;;;7.72;5.60;;;;;;;;;;5038239;28;20592;-45
2023/09/20 04:33:10;;;;;;;7.93;5.47;;;;;;;;;;5038274;28;20258;-46
2023/09/20 04:35:40;;;;;;;8.05;5.30;;;;;;;;;;5037766;28;20250;-46
2023/09/20 04:38:12;;;;;;;8.25;5.50;;;;;;;;;;5037360;28;20231;-45
2023/09/20 04:40:40;;;;;;;7.25;5.40;;;;;;;;;;5038057;28;20235;-45
2023/09/20 04:43:08;;;;;;;13.70;5.32;;;;;;;;;;5037731;28;20248;-46
2023/09/20 04:45:35;;;;;;;8.82;5.45;;;;;;;;;;5038134;28;20301;-45
2023/09/20 04:48:05;;;;;;;13.80;8.60;;;;;;;;;;5037290;28;20271;-46
2023/09/20 04:50:34;;;;;;;6.97;5.57;;;;;;;;;;5054364;28;20250;-46
2023/09/20 04:53:02;;;;;;;7.38;5.28;;;;;;;;;;5054345;28;20263;-47
2023/09/20 04:55:33;;;;;;;12.80;5.50;;;;;;;;;;5036579;28;20269;-46
2023/09/20 04:58:01;;;;;;;11.07;4.70;;;;;;;;;;5055909;28;20220;-46
2023/09/20 05:00:37;;;;;;;10.43;5.28;;;;;;;;;;5038066;28;20223;-47
2023/09/20 05:03:06;;;;;;;7.35;4.72;;;;;;;;;;5037592;28;20254;-46
2023/09/20 05:05:34;;;;;;;7.65;5.38;;;;;;;;;;5037352;28;20332;-45
2023/09/20 05:08:03;;;;;;;7.90;5.50;;;;;;;;;;5037450;28;20339;-45
2023/09/20 05:10:32;;;;;;;7.68;5.68;;;;;;;;;;5037717;28;20231;-46
2023/09/20 05:13:00;;;;;;;6.57;5.22;;;;;;;;;;5037705;28;20294;-45
2023/09/20 05:15:28;;;;;;;11.20;5.78;;;;;;;;;;5037570;28;20587;-44
2023/09/20 05:17:56;;;;;;;9.25;5.95;;;;;;;;;;5028290;28;20200;-45
2023/09/20 05:20:25;;;;;;;7.85;5.40;;;;;;;;;;5047796;28;20208;-45
2023/09/20 05:22:52;;;;;;;8.20;6.20;;;;;;;;;;5054920;28;20215;-46
2023/09/20 05:25:20;;;;;;;10.50;6.47;;;;;;;;;;5018669;28;20237;-46
2023/09/20 05:27:47;;;;;;;11.13;6.32;;;;;;;;;;5034376;28;20239;-44
2023/09/20 05:30:16;;;;;;;10.65;6.65;;;;;;;;;;5029030;28;20537;-45
2023/09/20 05:32:43;;;;;;;8.25;5.93;;;;;;;;;;5055251;28;20204;-44
2023/09/20 05:35:11;;;;;;;11.02;6.85;;;;;;;;;;5055436;28;20257;-45
2023/09/20 05:37:39;;;;;;;9.70;5.82;;;;;;;;;;5054878;28;20288;-46
2023/09/20 05:40:17;;;;;;;9.15;6.28;;;;;;;;;;5055542;28;20204;-45
2023/09/20 05:42:47;;;;;;;11.50;6.75;;;;;;;;;;5056011;28;20224;-45
2023/09/20 05:45:15;;;;;;;11.75;6.72;;;;;;;;;;5055176;28;20715;-46
2023/09/20 05:47:43;;;;;;;12.30;6.78;;;;;;;;;;5055538;28;20653;-44
2023/09/20 05:50:13;;;;;;;9.30;6.85;;;;;;;;;;5055276;28;20545;-44
2023/09/20 05:52:43;;;;;;;12.38;6.55;;;;;;;;;;5055302;28;20755;-46
2023/09/20 05:55:13;;;;;;;14.50;7.15;;;;;;;;;;5040091;28;20208;-45
2023/09/20 05:57:41;;;;;;;11.15;7.20;;;;;;;;;;5035247;28;20684;-44
2023/09/20 06:00:22;;;;;;;8.77;6.78;;;;;;;;;;5035383;28;20205;-44
2023/09/20 06:02:49;;;;;;;11.27;7.68;;;;;;;;;;5035171;28;20200;-45
2023/09/20 06:05:19;;;;;;;9.15;6.88;;;;;;;;;;5035032;28;20228;-44
2023/09/20 06:07:46;;;;;;;16.42;7.53;;;;;;;;;;5046899;28;20204;-45
2023/09/20 06:10:16;;;;;;;15.40;7.55;;;;;;;;;;5054890;28;20200;-45
2023/09/20 06:12:43;;;;;;;15.60;7.68;;;;;;;;;;5054875;28;20632;-45
2023/09/20 06:15:13;;;;;;;9.43;6.97;;;;;;;;;;5055058;28;20207;-45
2023/09/20 06:17:44;;;;;;;11.25;7.50;;;;;;;;;;5054946;28;20236;-45
2023/09/20 06:20:19;;;;;;;14.32;7.50;;;;;;;;;;5054856;28;20195;-45
2023/09/20 06:22:50;;;;;;;12.38;7.57;;;;;;;;;;5040907;28;20680;-44
2023/09/20 06:25:21;;;;;;;17.00;7.60;;;;;;;;;;5034544;28;20228;-45
2023/09/20 06:27:53;;;;;;;12.18;7.50;;;;;;;;;;5034967;28;20189;-44
2023/09/20 06:30:21;;;;;;;9.55;7.32;;;;;;;;;;5034664;28;20550;-45
2023/09/20 06:32:49;;;;;;;10.60;6.97;;;;;;;;;;5034721;28;20326;-45
2023/09/20 06:35:20;;;;;;;14.88;7.05;;;;;;;;;;5034706;28;20263;-45
2023/09/20 06:37:47;;;;;;;9.48;7.10;;;;;;;;;;5034805;28;20188;-45
2023/09/20 06:40:26;;;;;;;9.00;6.40;;;;;;;;;;5034569;28;20200;-45
2023/09/20 06:42:53;;;;;;;11.45;7.20;;;;;;;;;;5034372;28;20267;-44
2023/09/20 06:45:20;;;;;;;11.60;6.95;;;;;;;;;;5034232;28;20235;-44
2023/09/20 06:47:47;;;;;;;10.27;6.65;;;;;;;;;;5034194;28;20208;-45
2023/09/20 06:50:15;;;;;;;11.38;6.28;;;;;;;;;;5033774;28;20208;-45
2023/09/20 06:52:43;;;;;;;10.30;6.85;;;;;;;;;;5034412;28;20205;-45
2023/09/20 06:55:13;;;;;;;10.73;6.72;;;;;;;;;;5034188;28;20200;-46
2023/09/20 06:57:41;;;;;;;11.20;6.43;;;;;;;;;;5034334;28;20201;-46
2023/09/20 07:00:21;;;;;;;8.82;6.18;;;;;;;;;;5033984;28;20657;-45
2023/09/20 07:02:55;;;;;;;10.57;6.30;;;;;;;;;;5034285;28;20205;-45
2023/09/20 07:05:24;;;;;;;9.13;6.57;;;;;;;;;;5034136;28;20232;-45
2023/09/20 07:07:51;;;;;;;9.80;6.05;;;;;;;;;;5034490;28;20201;-46
2023/09/20 07:10:19;;;;;;;9.35;5.90;;;;;;;;;;5033748;28;20205;-47
2023/09/20 07:12:46;;;;;;;9.68;5.47;;;;;;;;;;5034027;28;20205;-45
2023/09/20 07:15:15;;;;;;;7.28;5.25;;;;;;;;;;5034240;28;20262;-46
2023/09/20 07:17:43;;;;;;;9.70;5.32;;;;;;;;;;5034124;28;20211;-45
2023/09/20 07:20:17;;;;;;;8.82;5.25;;;;;;;;;;5033761;28;20200;-45
2023/09/20 07:22:44;;;;;;;8.48;5.07;;;;;;;;;;4985979;28;20666;-45
2023/09/20 07:25:19;;;;;;;7.85;4.60;;;;;;;;;;5033502;28;20228;-45
2023/09/20 07:27:48;;;;;;;8.63;3.88;;;;;;;;;;5033725;28;20199;-45
2023/09/20 07:30:19;;;;;;;6.47;4.57;;;;;;;;;;5033666;28;20608;-46
2023/09/20 07:32:48;;;;;;;5.82;4.10;;;;;;;;;;5033631;28;20288;-46
2023/09/20 07:35:38;;;;;;;11.13;4.28;;;;;;;;;;5033539;28;20197;-46
2023/09/20 07:38:17;;;;;;;8.02;3.80;;;;;;;;;;5033783;28;20200;-46
2023/09/20 07:40:50;;;;;;;6.72;3.50;;;;;;;;;;5033668;28;20204;-45
2023/09/20 07:43:18;;;;;;;4.32;2.42;;;;;;;;;;5033299;28;20700;-44
2023/09/20 07:46:00;;;;;;;7.72;2.78;;;;;;;;;;5033687;28;20213;-46
2023/09/20 07:48:27;;;;;;;4.53;2.65;;;;;;;;;;5034281;28;20193;-45
2023/09/20 07:50:55;;;;;;;5.05;2.97;;;;;;;;;;5033499;28;20208;-45
2023/09/20 07:53:22;;;;;;;3.60;2.70;;;;;;;;;;5033591;28;20231;-45
2023/09/20 07:56:00;;;;;;;3.58;2.85;;;;;;;;;;5033520;28;20256;-45
2023/09/20 07:58:28;;;;;;;4.28;2.88;;;;;;;;;;5033401;28;20274;-48
2023/09/20 08:00:59;;;;;;;4.18;2.63;;;;;;;;;;5035522;28;20209;-45
2023/09/20 08:03:31;;;;;;;9.60;3.25;;;;;;;;;;5037880;28;20208;-45
2023/09/20 08:05:59;;;;;;;7.05;2.50;;;;;;;;;;5037336;28;20290;-47
2023/09/20 08:08:26;;;;;;;3.75;2.67;;;;;;;;;;5037511;28;20239;-45
2023/09/20 08:10:54;;;;;;;5.53;3.35;;;;;;;;;;5037510;28;20216;-45
2023/09/20 08:13:39;;;;;;;7.03;3.30;;;;;;;;;;5037421;28;20657;-43
2023/09/20 08:16:09;;;;;;;5.07;2.70;;;;;;;;;;5037295;28;20212;-45
2023/09/20 08:21:25;;;;;;;7.93;2.88;;;;;;;;;;5037100;28;20216;-45
2023/09/20 09:00:19;;;;;;;4.18;1.73;;;;;;;;;;5035677;28;20558;-45
2023/09/20 09:02:56;;;;;;;7.38;1.55;;;;;;;;;;5035483;28;20228;-46
2023/09/20 09:05:27;;;;;;;4.93;1.70;;;;;;;;;;5036231;28;20228;-45
2023/09/20 09:08:00;;;;;;;2.33;1.63;;;;;;;;;;5036624;28;20203;-45
2023/09/20 09:10:28;;;;;;;3.88;1.98;;;;;;;;;;5036239;28;20216;-45
2023/09/20 09:12:57;;;;;;;3.67;1.85;;;;;;;;;;5034902;28;20654;-45
2023/09/20 09:15:27;;;;;;;4.88;2.20;;;;;;;;;;5036356;28;20196;-46
2023/09/20 09:17:55;;;;;;;3.28;2.10;;;;;;;;;;5018902;28;20211;-45
2023/09/20 09:20:23;;;;;;;3.15;2.15;;;;;;;;;;5036358;28;20201;-45
2023/09/20 09:22:50;;;;;;;2.78;1.98;;;;;;;;;;5036018;28;20208;-45
2023/09/20 09:25:20;;;;;;;6.05;2.42;;;;;;;;;;5035588;28;20228;-44
2023/09/20 09:27:47;;;;;;;4.70;1.73;;;;;;;;;;5035080;28;20212;-45
2023/09/20 09:30:16;;;;;;;4.63;1.38;;;;;;;;;;5035639;28;20189;-45
2023/09/20 09:32:47;;;;;;;5.85;1.67;;;;;;;;;;5017243;28;20208;-45
2023/09/20 09:35:18;;;;;;;3.17;1.60;;;;;;;;;;5035855;28;20204;-46
2023/09/20 09:38:01;;;;;;;2.65;1.40;;;;;;;;;;5035710;28;20739;-45
2023/09/20 09:40:29;;;;;;;4.90;1.70;;;;;;;;;;5035554;28;20208;-45
2023/09/20 09:43:13;;;;;;;6.47;1.70;;;;;;;;;;5035643;28;20316;-45
2023/09/20 09:45:44;;;;;;;4.03;1.50;;;;;;;;;;5035081;28;20224;-46
2023/09/20 09:48:17;;;;;;;5.30;1.40;;;;;;;;;;5017814;28;20200;-45
2023/09/20 09:50:46;;;;;;;4.47;1.67;;;;;;;;;;5035603;28;20212;-44
2023/09/20 09:53:13;;;;;;;5.03;1.77;;;;;;;;;;5034136;28;20231;-46
2023/09/20 09:55:41;;;;;;;2.88;1.40;;;;;;;;;;5035520;28;20263;-45
2023/09/20 09:58:09;;;;;;;2.45;1.50;;;;;;;;;;5035464;28;20201;-45
2023/09/20 10:00:39;;;;;;;2.55;1.48;;;;;;;;;;5016988;28;20208;-46
2023/09/20 10:03:18;;;;;;;3.95;1.55;;;;;;;;;;5035439;28;20193;-44
2023/09/20 10:05:46;;;;;;;5.13;1.92;;;;;;;;;;5035253;28;20219;-45
2023/09/20 10:08:14;;;;;;;3.95;1.55;;;;;;;;;;5035050;28;20203;-45
2023/09/20 10:10:41;;;;;;;4.07;1.30;;;;;;;;;;5034295;28;20196;-45
2023/09/20 10:13:14;;;;;;;4.65;1.95;;;;;;;;;;5035206;28;20583;-46
2023/09/20 10:15:43;;;;;;;2.78;1.63;;;;;;;;;;5033925;28;20228;-44
2023/09/20 10:18:11;;;;;;;4.65;1.63;;;;;;;;;;5035190;28;20207;-45
2023/09/20 10:21:15;;;;;;;4.65;1.90;;;;;;;;;;5033610;28;20224;-44
2023/09/20 10:23:45;;;;;;;3.75;1.58;;;;;;;;;;4957774;28;20217;-45
2023/09/20 10:26:13;;;;;;;2.92;1.80;;;;;;;;;;4973819;28;20711;-44
2023/09/20 10:28:42;;;;;;;2.35;1.33;;;;;;;;;;4974111;28;20307;-44
2023/09/20 10:31:17;;;;;;;2.65;1.38;;;;;;;;;;4957748;28;20206;-46
2023/09/20 10:33:51;;;;;;;6.53;1.63;;;;;;;;;;4974070;28;20208;-45
2023/09/20 10:36:23;;;;;;;1.70;1.30;;;;;;;;;;4973767;28;20217;-44
2023/09/20 10:39:21;;;;;;;3.08;1.60;;;;;;;;;;4973895;28;20198;-45
2023/09/20 10:41:51;;;;;;;3.10;1.88;;;;;;;;;;4973351;28;20246;-44
2023/09/20 10:44:38;;;;;;;3.15;1.80;;;;;;;;;;4973518;28;20689;-45
2023/09/20 10:47:14;;;;;;;4.18;1.60;;;;;;;;;;4973384;28;20222;-44
2023/09/20 10:49:53;;;;;;;2.97;1.50;;;;;;;;;;4973585;28;20217;-44
2023/09/20 10:52:32;;;;;;;3.55;1.52;;;;;;;;;;4973563;28;20210;-45
2023/09/20 10:55:18;;;;;;;5.65;1.38;;;;;;;;;;4973359;28;20699;-44
2023/09/20 10:57:46;;;;;;;4.55;1.67;;;;;;;;;;5004488;28;20212;-44
2023/09/20 11:00:27;;;;;;;2.55;1.30;;;;;;;;;;5034280;28;20224;-45
2023/09/20 11:02:56;;;;;;;1.75;1.40;;;;;;;;;;5034263;28;20192;-44
2023/09/20 11:05:24;;;;;;;4.15;1.60;;;;;;;;;;5034117;28;20600;-46
2023/09/20 11:07:53;;;;;;;2.10;1.50;;;;;;;;;;5034142;28;20208;-44
2023/09/20 11:10:20;;;;;;;2.03;1.52;;;;;;;;;;5034029;28;20290;-44
2023/09/20 11:12:48;;;;;;;5.03;1.33;;;;;;;;;;5034327;28;20224;-44
2023/09/20 11:15:15;;;;;;;1.20;0.90;;;;;;;;;;5033722;28;20740;-44
2023/09/20 11:17:42;;;;;;;2.25;1.20;;;;;;;;;;5033801;28;20201;-45
2023/09/20 11:20:12;;;;;;;2.80;1.33;;;;;;;;;;5033976;28;20604;-46
2023/09/20 11:22:41;;;;;;;4.32;1.88;;;;;;;;;;5033967;28;20204;-44
2023/09/20 11:25:08;;;;;;;4.13;1.70;;;;;;;;;;5033453;28;20665;-45
2023/09/20 11:27:38;;;;;;;1.83;1.10;;;;;;;;;;5033977;28;20216;-44
2023/09/20 11:30:07;;;;;;;2.40;1.48;;;;;;;;;;5033521;28;20204;-45
2023/09/20 11:32:39;;;;;;;2.50;1.60;;;;;;;;;;5033429;28;20649;-45
2023/09/20 11:35:07;;;;;;;7.03;1.48;;;;;;;;;;5033516;28;20221;-45
2023/09/20 11:37:35;;;;;;;5.70;1.38;;;;;;;;;;5033464;28;20197;-44
2023/09/20 11:40:04;;;;;;;4.30;1.40;;;;;;;;;;5033765;28;20193;-46
2023/09/20 11:42:34;;;;;;;4.45;1.55;;;;;;;;;;5033762;28;20224;-44
2023/09/20 11:45:08;;;;;;;3.08;1.73;;;;;;;;;;5033596;28;20203;-48
2023/09/20 11:47:56;;;;;;;3.85;1.40;;;;;;;;;;5033261;28;20193;-46
2023/09/20 11:50:26;;;;;;;3.05;1.45;;;;;;;;;;5033502;28;20208;-44
2023/09/20 11:52:54;;;;;;;3.72;1.63;;;;;;;;;;5033901;28;20683;-45
2023/09/20 11:55:22;;;;;;;2.83;1.30;;;;;;;;;;5033254;28;20215;-46
2023/09/20 11:57:52;;;;;;;3.10;1.63;;;;;;;;;;5033493;28;20200;-44
2023/09/20 12:00:25;;;;;;;2.42;1.30;;;;;;;;;;5033058;28;20620;-45
2023/09/20 12:02:54;;;;;;;7.70;1.70;;;;;;;;;;5033402;28;20664;-45
2023/09/20 12:05:21;;;;;;;2.53;1.42;;;;;;;;;;5032926;28;20288;-46
2023/09/20 12:07:58;;;;;;;2.58;1.77;;;;;;;;;;5033195;28;20208;-45
2023/09/20 12:10:27;;;;;;;3.38;1.60;;;;;;;;;;5032921;28;20185;-45
2023/09/20 12:12:55;;;;;;;3.75;1.75;;;;;;;;;;5032777;28;20613;-46
2023/09/20 12:15:23;;;;;;;3.65;1.88;;;;;;;;;;5033153;28;20201;-45
2023/09/20 12:17:55;;;;;;;7.60;2.42;;;;;;;;;;5032654;28;20204;-45
2023/09/20 12:20:24;;;;;;;5.00;2.08;;;;;;;;;;5032409;28;20181;-46
2023/09/20 12:22:53;;;;;;;3.72;2.80;;;;;;;;;;5033400;28;20205;-45
2023/09/20 12:25:20;;;;;;;3.80;2.80;;;;;;;;;;5032860;28;20250;-45
2023/09/20 12:27:48;;;;;;;5.15;3.00;;;;;;;;;;5036985;28;20215;-45
2023/09/20 12:30:15;;;;;;;6.05;4.22;;;;;;;;;;5031282;28;20233;-44
2023/09/20 12:32:42;;;;;;;5.32;4.20;;;;;;;;;;5036302;28;20223;-45
2023/09/20 12:35:10;;;;;;;7.38;5.10;;;;;;;;;;5052032;28;20311;-44
2023/09/20 12:37:37;;;;;;;6.53;4.95;;;;;;;;;;5050298;28;20231;-46
2023/09/20 12:40:09;;;;;;;9.52;5.80;;;;;;;;;;5051662;28;20270;-45
2023/09/20 12:42:40;;;;;;;6.38;5.30;;;;;;;;;;5043228;28;20287;-45
2023/09/20 12:45:08;;;;;;;8.88;5.50;;;;;;;;;;5049921;28;20231;-48
2023/09/20 12:47:39;;;;;;;9.15;5.70;;;;;;;;;;5054132;28;20235;-45
2023/09/20 12:50:13;;;;;;;9.15;7.03;;;;;;;;;;5052224;28;20227;-46
2023/09/20 12:52:42;;;;;;;10.73;6.40;;;;;;;;;;5055581;28;20238;-45
2023/09/20 12:55:11;;;;;;;7.72;5.72;;;;;;;;;;5054867;28;20220;-47
2023/09/20 12:57:42;;;;;;;8.35;6.40;;;;;;;;;;5055425;28;20750;-45
2023/09/20 13:00:16;;;;;;;9.40;7.10;;;;;;;;;;5052012;28;20755;-45
2023/09/20 13:02:57;;;;;;;8.02;6.93;;;;;;;;;;5055500;28;20212;-46
2023/09/20 13:05:26;;;;;;;10.63;6.88;;;;;;;;;;5053331;28;20303;-45
2023/09/20 13:07:56;;;;;;;7.25;5.75;;;;;;;;;;5035200;28;20283;-45
2023/09/20 13:10:24;;;;;;;8.15;5.93;;;;;;;;;;5035389;28;20227;-49
2023/09/20 13:12:51;;;;;;;9.13;6.32;;;;;;;;;;5035470;28;20231;-45
2023/09/20 13:15:20;;;;;;;9.65;6.43;;;;;;;;;;5041924;28;20240;-46
2023/09/20 13:17:55;;;;;;;11.05;6.47;;;;;;;;;;5055248;28;20700;-45
2023/09/20 13:20:25;;;;;;;8.27;6.15;;;;;;;;;;5055475;28;20228;-45
2023/09/20 13:22:53;;;;;;;9.10;6.20;;;;;;;;;;5054727;28;20216;-45
2023/09/20 13:25:21;;;;;;;8.63;4.70;;;;;;;;;;5055192;28;20246;-43
2023/09/20 13:27:49;;;;;;;5.53;4.35;;;;;;;;;;5054660;28;20735;-45
2023/09/20 13:30:17;;;;;;;6.72;3.50;;;;;;;;;;5054330;28;20696;-44
2023/09/20 13:32:46;;;;;;;7.70;3.00;;;;;;;;;;5054697;28;20224;-44
2023/09/20 13:35:18;;;;;;;2.78;2.00;;;;;;;;;;5055112;28;20224;-44
2023/09/20 13:37:46;;;;;;;4.28;2.28;;;;;;;;;;5054794;28;20224;-44
2023/09/20 13:40:15;;;;;;;3.75;2.03;;;;;;;;;;5055009;28;20216;-44
2023/09/20 13:42:44;;;;;;;4.65;2.30;;;;;;;;;;5054390;28;20228;-44
2023/09/20 13:45:13;;;;;;;3.97;2.22;;;;;;;;;;5054627;28;20294;-45
2023/09/20 13:47:41;;;;;;;3.80;2.08;;;;;;;;;;5054328;28;20341;-44
2023/09/20 13:50:10;;;;;;;3.05;2.17;;;;;;;;;;5054864;28;20231;-45
2023/09/20 13:52:40;;;;;;;4.55;2.28;;;;;;;;;;5054709;28;20625;-46
2023/09/20 13:55:08;;;;;;;4.50;2.42;;;;;;;;;;5054927;28;20231;-44
2023/09/20 13:57:37;;;;;;;5.57;2.45;;;;;;;;;;5048813;28;20226;-46
2023/09/20 14:00:14;;;;;;;4.13;2.10;;;;;;;;;;5048400;28;20581;-46
2023/09/20 14:02:43;;;;;;;2.20;1.63;;;;;;;;;;5054170;28;20250;-46
2023/09/20 14:05:16;;;;;;;5.57;1.50;;;;;;;;;;5037356;28;20278;-45
2023/09/20 14:07:45;;;;;;;5.60;1.60;;;;;;;;;;5051828;28;20263;-46
2023/09/20 14:10:14;;;;;;;5.70;1.75;;;;;;;;;;5050209;28;20216;-46
2023/09/20 14:12:43;;;;;;;2.30;1.58;;;;;;;;;;5036115;28;20252;-45
2023/09/20 14:15:15;;;;;;;2.33;1.33;;;;;;;;;;5036035;28;20228;-46
2023/09/20 14:17:46;;;;;;;3.70;1.95;;;;;;;;;;5053599;28;20597;-46
2023/09/20 14:20:18;;;;;;;4.35;1.50;;;;;;;;;;5053720;28;20234;-44
2023/09/20 14:22:45;;;;;;;5.70;1.48;;;;;;;;;;5052214;28;20231;-46
2023/09/20 14:25:13;;;;;;;2.28;1.60;;;;;;;;;;5053445;28;20224;-45
2023/09/20 14:27:41;;;;;;;2.55;1.35;;;;;;;;;;5053537;28;20314;-45
2023/09/20 14:30:10;;;;;;;2.50;1.42;;;;;;;;;;5053019;28;20227;-46
2023/09/20 14:32:38;;;;;;;3.15;1.42;;;;;;;;;;5051030;28;20224;-45
2023/09/20 14:35:08;;;;;;;2.67;1.50;;;;;;;;;;5033346;28;20221;-46
2023/09/20 14:37:35;;;;;;;2.55;1.33;;;;;;;;;;5033378;28;20325;-49
2023/09/20 14:40:12;;;;;;;3.45;1.60;;;;;;;;;;5033173;28;20307;-46
2023/09/20 14:42:44;;;;;;;6.10;1.80;;;;;;;;;;5032235;28;20243;-46
2023/09/20 14:45:13;;;;;;;3.10;1.73;;;;;;;;;;5037546;28;20228;-46
2023/09/20 14:47:40;;;;;;;3.00;1.30;;;;;;;;;;5034430;28;20239;-46
2023/09/20 14:50:11;;;;;;;3.05;1.63;;;;;;;;;;5052406;28;20593;-47
2023/09/20 14:52:40;;;;;;;3.78;1.45;;;;;;;;;;5032245;28;20315;-47
2023/09/20 14:55:10;;;;;;;2.53;1.48;;;;;;;;;;5044396;28;20224;-49
2023/09/20 14:57:38;;;;;;;3.92;1.67;;;;;;;;;;5052578;28;21091;-48
2023/09/20 15:00:07;;;;;;;4.30;1.45;;;;;;;;;;5051198;28;20208;-45
2023/09/20 15:02:35;;;;;;;2.13;1.40;;;;;;;;;;5052056;28;20202;-49
2023/09/20 15:05:04;;;;;;;3.25;1.33;;;;;;;;;;5053244;28;20195;-47
2023/09/20 15:07:33;;;;;;;3.22;1.42;;;;;;;;;;5053345;28;20575;-46
2023/09/20 15:10:01;;;;;;;3.38;1.42;;;;;;;;;;5061449;28;20223;-48
2023/09/20 15:12:30;;;;;;;2.08;1.40;;;;;;;;;;5055709;28;20196;-47
2023/09/20 15:14:58;;;;;;;3.40;1.50;;;;;;;;;;5053120;28;20302;-47
2023/09/20 15:17:27;;;;;;;8.57;1.52;;;;;;;;;;5044899;28;20200;-45
2023/09/20 15:19:54;;;;;;;2.42;1.50;;;;;;;;;;5051947;28;20188;-46
2023/09/20 15:22:23;;;;;;;2.28;1.40;;;;;;;;;;5052333;28;20199;-45
2023/09/20 15:24:52;;;;;;;3.05;1.27;;;;;;;;;;5052400;28;20200;-44
2023/09/20 15:27:19;;;;;;;3.20;1.73;;;;;;;;;;5052116;28;20692;-45
2023/09/20 15:29:46;;;;;;;1.92;1.20;;;;;;;;;;5049298;28;20192;-45
2023/09/20 15:32:13;;;;;;;2.13;1.42;;;;;;;;;;5052649;28;20202;-46
2023/09/20 15:34:42;;;;;;;6.82;1.45;;;;;;;;;;5051709;28;20219;-47